Accueil
METAR-TAF:

METAR-TAF

Aéroports :

Ely, Minnesota, États-Unis

latitude: 47-49N, longitude: 091-50W, altitude: 443 m

Observation

Le bulletin a été fait il y a 10 minutes, à 15:35 UTC
Vent 8 kt de nord-ouest avec des rafales jusqu'à 14 kt
Température 24°C
Humidité 38%
Pression 1010 hPa
Visibilité: 16.1 km
Ciel clair

METAR: KELO 021535Z AUTO 31008G14KT 10SM CLR 24/09 A2982 RMK AO2

Heure: 10:45 (15:45 UTC)


TAF: absent

Observations et prévisions météorologiques de plus de 4000 aéroports (messages METAR et TAF).

Les stations disponibles sont représentées par des disques jaunes et rouges sur la carte.

Passer la souris dessus pour voir le nom de la station.

Cliquer dessus pour voir les observations et prévisions météorologiques.

Pour changer de carte: cliquez sur les boutons verts avec une croix noire pour zoomer, sur le bouton vert avec un tiret pour effectuer un zoom arrière, ou sur les flèches vertes pour les cartes adjacentes.


METAR-TAF: